Neptune Avra — 9HKH6 — position and weather

sailwx.info

Track history (hours):
 
Tides and Currents Weather Stations Pressure Air Temp Water Temp Dewpoint Dewpoint Depression Visibility Wind Speed Wind Dir Waves Ship Positions

Neptune Avra

Last reported at 2015-Aug-29 02:31 UTC. Time now 2015-Aug-29 03:12 UTC.
Position N 37°04' W 000°07'.

Length 155 m; draft 6 m.

Type: Cargo ship. MMSI: 248598000.

Date/timePositionNaut miles runAvg speedWind from/ knotsBaromVisibWave heightAir tempDewpointWater temp
2015-Aug-29 02:31N 37°04' W 000°07'1 1.5
2015-Aug-29 01:31N 37°05' W 000°05'2 1.6
2015-Aug-29 00:33N 37°05' W 000°03'2 1.7
2015-Aug-28 23:26N 37°05' W 000°01'1 1.6
2015-Aug-28 22:33N 37°05' E 000°01'1 1.5
2015-Aug-28 21:33N 37°05' E 000°03'2 1.5
2015-Aug-28 20:33N 37°05' E 000°05'2 1.6
2015-Aug-28 19:33N 37°04' E 000°07'2 1.6
2015-Aug-28 18:33N 37°04' E 000°09'2 1.6
2015-Aug-28 17:33N 37°03' E 000°11'2 1.8
2015-Aug-28 16:33N 37°03' E 000°13'2 1.8
2015-Aug-28 15:33N 37°02' E 000°15'2 1.7
2015-Aug-28 14:33N 37°02' E 000°17'1 1.3
2015-Aug-28 13:30N 37°02' E 000°19'1 1.0
2015-Aug-28 12:09N 37°02' E 000°20'1 0.9
2015-Aug-28 11:19N 37°02' E 000°21'5 5.8
2015-Aug-28 10:32N 36°58' E 000°22'1715.1
2015-Aug-28 09:26N 36°52' E 000°42'1415.7
2015-Aug-28 08:32N 36°47' E 000°58'1917.0
2015-Aug-28 07:26N 36°51' E 001°21'1416.7
2015-Aug-28 06:33N 36°53' E 001°39'8316.7
2015-Aug-28 01:33N 37°05' E 003°22'1716.8
2015-Aug-28 00:33N 37°05' E 003°43'1616.5
2015-Aug-27 23:34N 37°05' E 004°04'1716.5
2015-Aug-27 22:33N 37°05' E 004°25'75 8.3
2015-Aug-27 13:30N 36°55' E 005°58'7 7.6
2015-Aug-27 12:33N 36°52' E 005°49'62716.5
2015-Aug-25 22:33N 36°06' W 007°08'1717.1
2015-Aug-25 21:33N 36°11' W 007°29'1717.2
2015-Aug-25 20:33N 36°15' W 007°49'1717.2
2015-Aug-25 19:33N 36°19' W 008°10'1717.0
2015-Aug-25 18:33N 36°24' W 008°30'1716.9
2015-Aug-25 17:33N 36°28' W 008°51'1717.1
2015-Aug-25 16:33N 36°33' W 009°11'1716.6
2015-Aug-25 15:33N 36°43' W 009°27'1716.9
2015-Aug-25 14:33N 36°59' W 009°36'1716.8
2015-Aug-25 13:33N 37°15' W 009°42'2216.9
2015-Aug-25 12:17N 37°36' W 009°48'1216.5
2015-Aug-25 11:32N 37°48' W 009°52'1616.4
2015-Aug-25 10:33N 38°03' W 009°56'1716.6
2015-Aug-25 09:33N 38°20' W 010°00'1817.5
2015-Aug-25 08:33N 38°37' W 010°04'1717.3
2015-Aug-25 07:34N 38°54' W 010°05'1615.6
2015-Aug-25 06:34N 39°08' W 009°56'1716.9
2015-Aug-25 05:33N 39°22' W 009°44'1916.1
2015-Aug-25 04:21N 39°40' W 009°33'3016.8
2015-Aug-25 02:32N 40°04' W 009°10'3816.5
2015-Aug-25 00:14N 40°42' W 009°03'87 2.9
2015-Aug-23 18:06N 39°24' W 009°53'815.0
2015-Aug-23 17:34N 39°15' W 009°52'1515.3
2015-Aug-23 16:33N 39°00' W 009°52'1615.8
2015-Aug-23 15:33N 38°44' W 009°51'1615.9
2015-Aug-23 14:33N 38°29' W 009°46'1616.2
2015-Aug-23 13:33N 38°13' W 009°42'1616.0
2015-Aug-23 12:33N 37°57' W 009°38'1615.7
2015-Aug-23 11:33N 37°42' W 009°33'6315.5
2015-Aug-23 07:27N 36°43' W 009°05'1516.3
2015-Aug-23 06:33N 36°38' W 008°47'1716.6
2015-Aug-23 05:31N 36°33' W 008°27'1916.7
2015-Aug-23 04:21N 36°27' W 008°04'32015.0
2015-Aug-22 07:05N 36°50' W 001°26'1017.5
2015-Aug-22 06:29N 36°56' W 001°16'1617.6
2015-Aug-22 05:33N 37°06' W 000°59'1817.5
2015-Aug-22 04:33N 37°16' W 000°41'1817.5
2015-Aug-22 03:33N 37°26' W 000°22'1717.1
2015-Aug-22 02:33N 37°35' W 000°05'1716.9
2015-Aug-22 01:33N 37°45' E 000°13'1716.9
2015-Aug-22 00:33N 37°55' E 000°30'1717.0
2015-Aug-21 23:33N 38°05' E 000°48'1717.0
2015-Aug-21 22:34N 38°14' E 001°06'1816.9
2015-Aug-21 21:29N 38°24' E 001°25'2 2.6
2015-Aug-21 20:33N 38°26' E 001°27'1716.9
2015-Aug-21 19:33N 38°16' E 001°09'5 4.7
2015-Aug-21 18:33N 38°13' E 001°05'1716.8
2015-Aug-21 17:33N 38°23' E 001°22'1716.6
2015-Aug-21 16:33N 38°33' E 001°38'1716.6
2015-Aug-21 15:33N 38°49' E 001°46'1616.5
2015-Aug-21 14:33N 39°05' E 001°52'1515.1
2015-Aug-21 13:33N 39°19' E 001°58'1 1.0
2015-Aug-21 12:33N 39°19' E 001°60'1 1.0
2015-Aug-21 11:33N 39°19' E 002°00'1 0.9
2015-Aug-21 10:33N 39°18' E 002°01'1 0.9
2015-Aug-21 09:33N 39°17' E 002°01'1 0.7
2015-Aug-21 08:33N 39°16' E 002°02'1 0.6
2015-Aug-21 07:33N 39°16' E 002°02'0 0.5
2015-Aug-21 06:33N 39°15' E 002°03'0 0.5
2015-Aug-21 05:33N 39°15' E 002°03'0 0.5
2015-Aug-21 04:33N 39°15' E 002°03'0 0.5
2015-Aug-21 03:33N 39°14' E 002°04'0 0.5
2015-Aug-21 02:33N 39°14' E 002°04'1 0.6
2015-Aug-21 01:33N 39°13' E 002°04'1 0.6
2015-Aug-21 00:33N 39°13' E 002°04'1 0.6
2015-Aug-20 23:33N 39°12' E 002°04'1 0.7
2015-Aug-20 22:33N 39°12' E 002°05'1 0.8
2015-Aug-20 21:33N 39°11' E 002°05'1 0.8
2015-Aug-20 20:33N 39°10' E 002°05'1 0.8
2015-Aug-20 19:33N 39°09' E 002°05'1 0.8
2015-Aug-20 18:33N 39°08' E 002°06'1 0.7
2015-Aug-20 17:33N 39°08' E 002°06'1 0.8
2015-Aug-20 16:33N 39°07' E 002°06'1 0.8
2015-Aug-20 15:33N 39°06' E 002°06'1 0.9
2015-Aug-20 14:33N 39°05' E 002°07'1 0.8
2015-Aug-20 13:07N 39°04' E 002°08'1 0.9
2015-Aug-20 12:33N 39°04' E 002°08'1 1.0
2015-Aug-20 11:33N 39°03' E 002°09'1 0.9
2015-Aug-20 10:33N 39°02' E 002°09'1 0.9
2015-Aug-20 09:33N 39°02' E 002°10'1 0.9
2015-Aug-20 08:32N 39°01' E 002°11'1 0.8
2015-Aug-20 07:33N 39°00' E 002°11'1 0.8
2015-Aug-20 06:33N 38°60' E 002°12'1 0.8
2015-Aug-20 05:33N 38°59' E 002°13'1 0.8
2015-Aug-20 04:33N 38°58' E 002°13'1 0.9
2015-Aug-20 03:33N 38°57' E 002°14'1 0.9
2015-Aug-20 02:29N 38°56' E 002°14'1 1.0
2015-Aug-20 01:33N 38°55' E 002°14'1 1.0
2015-Aug-20 00:33N 38°55' E 002°15'1 1.0
2015-Aug-19 23:29N 38°54' E 002°16'1 1.1
2015-Aug-19 22:32N 38°53' E 002°16'1 1.1
2015-Aug-19 21:31N 38°52' E 002°17'1 1.1
2015-Aug-19 20:33N 38°51' E 002°18'1 1.0
2015-Aug-19 19:33N 38°50' E 002°19'1 0.9
2015-Aug-19 18:27N 38°50' E 002°19'1 0.8
2015-Aug-19 17:33N 38°49' E 002°20'1 0.8
2015-Aug-19 16:32N 38°48' E 002°20'1 0.9
2015-Aug-19 15:31N 38°48' E 002°21'1 0.9
2015-Aug-19 14:32N 38°47' E 002°22'1 1.0
2015-Aug-19 13:31N 38°46' E 002°23'1 1.2
2015-Aug-19 12:30N 38°45' E 002°24'4 1.2
2015-Aug-19 09:30N 38°44' E 002°28'5 1.2
2015-Aug-19 05:33N 38°43' E 002°34'1 1.3
2015-Aug-19 04:32N 38°43' E 002°36'1 1.1
2015-Aug-19 03:33N 38°43' E 002°37'1 1.0
2015-Aug-19 02:33N 38°43' E 002°39'  
Track history (hours):
 
Tides and Currents Weather Stations Pressure Air Temp Water Temp Dewpoint Dewpoint Depression Visibility Wind Speed Wind Dir Waves Ship Positions

Neptune Avra

Last reported at 2015-Aug-29 02:31 UTC. Time now 2015-Aug-29 03:12 UTC.
Position N 37°04' W 000°07'.

Length 155 m; draft 6 m.

Type: Cargo ship. MMSI: 248598000.

Date/timePositionNaut miles runAvg speedWind from/ knotsBaromVisibWave heightAir tempDewpointWater temp
2015-Aug-29 02:31N 37°04' W 000°07'1 1.5
2015-Aug-29 01:31N 37°05' W 000°05'2 1.6
2015-Aug-29 00:33N 37°05' W 000°03'2 1.7
2015-Aug-28 23:26N 37°05' W 000°01'1 1.6
2015-Aug-28 22:33N 37°05' E 000°01'1 1.5
2015-Aug-28 21:33N 37°05' E 000°03'2 1.5
2015-Aug-28 20:33N 37°05' E 000°05'2 1.6
2015-Aug-28 19:33N 37°04' E 000°07'2 1.6
2015-Aug-28 18:33N 37°04' E 000°09'2 1.6
2015-Aug-28 17:33N 37°03' E 000°11'2 1.8
2015-Aug-28 16:33N 37°03' E 000°13'2 1.8
2015-Aug-28 15:33N 37°02' E 000°15'2 1.7
2015-Aug-28 14:33N 37°02' E 000°17'1 1.3
2015-Aug-28 13:30N 37°02' E 000°19'1 1.0
2015-Aug-28 12:09N 37°02' E 000°20'1 0.9
2015-Aug-28 11:19N 37°02' E 000°21'5 5.8
2015-Aug-28 10:32N 36°58' E 000°22'1715.1
2015-Aug-28 09:26N 36°52' E 000°42'1415.7
2015-Aug-28 08:32N 36°47' E 000°58'1917.0
2015-Aug-28 07:26N 36°51' E 001°21'1416.7
2015-Aug-28 06:33N 36°53' E 001°39'8316.7
2015-Aug-28 01:33N 37°05' E 003°22'1716.8
2015-Aug-28 00:33N 37°05' E 003°43'1616.5
2015-Aug-27 23:34N 37°05' E 004°04'1716.5
2015-Aug-27 22:33N 37°05' E 004°25'75 8.3
2015-Aug-27 13:30N 36°55' E 005°58'7 7.6
2015-Aug-27 12:33N 36°52' E 005°49'62716.5
2015-Aug-25 22:33N 36°06' W 007°08'1717.1
2015-Aug-25 21:33N 36°11' W 007°29'1717.2
2015-Aug-25 20:33N 36°15' W 007°49'1717.2
2015-Aug-25 19:33N 36°19' W 008°10'1717.0
2015-Aug-25 18:33N 36°24' W 008°30'1716.9
2015-Aug-25 17:33N 36°28' W 008°51'1717.1
2015-Aug-25 16:33N 36°33' W 009°11'1716.6
2015-Aug-25 15:33N 36°43' W 009°27'1716.9
2015-Aug-25 14:33N 36°59' W 009°36'1716.8
2015-Aug-25 13:33N 37°15' W 009°42'2216.9
2015-Aug-25 12:17N 37°36' W 009°48'1216.5
2015-Aug-25 11:32N 37°48' W 009°52'1616.4
2015-Aug-25 10:33N 38°03' W 009°56'1716.6
2015-Aug-25 09:33N 38°20' W 010°00'1817.5
2015-Aug-25 08:33N 38°37' W 010°04'1717.3
2015-Aug-25 07:34N 38°54' W 010°05'1615.6
2015-Aug-25 06:34N 39°08' W 009°56'1716.9
2015-Aug-25 05:33N 39°22' W 009°44'1916.1
2015-Aug-25 04:21N 39°40' W 009°33'3016.8
2015-Aug-25 02:32N 40°04' W 009°10'3816.5
2015-Aug-25 00:14N 40°42' W 009°03'87 2.9
2015-Aug-23 18:06N 39°24' W 009°53'815.0
2015-Aug-23 17:34N 39°15' W 009°52'1515.3
2015-Aug-23 16:33N 39°00' W 009°52'1615.8
2015-Aug-23 15:33N 38°44' W 009°51'1615.9
2015-Aug-23 14:33N 38°29' W 009°46'1616.2
2015-Aug-23 13:33N 38°13' W 009°42'1616.0
2015-Aug-23 12:33N 37°57' W 009°38'1615.7
2015-Aug-23 11:33N 37°42' W 009°33'6315.5
2015-Aug-23 07:27N 36°43' W 009°05'1516.3
2015-Aug-23 06:33N 36°38' W 008°47'1716.6
2015-Aug-23 05:31N 36°33' W 008°27'1916.7
2015-Aug-23 04:21N 36°27' W 008°04'32015.0
2015-Aug-22 07:05N 36°50' W 001°26'1017.5
2015-Aug-22 06:29N 36°56' W 001°16'1617.6
2015-Aug-22 05:33N 37°06' W 000°59'1817.5
2015-Aug-22 04:33N 37°16' W 000°41'1817.5
2015-Aug-22 03:33N 37°26' W 000°22'1717.1
2015-Aug-22 02:33N 37°35' W 000°05'1716.9
2015-Aug-22 01:33N 37°45' E 000°13'1716.9
2015-Aug-22 00:33N 37°55' E 000°30'1717.0
2015-Aug-21 23:33N 38°05' E 000°48'1717.0
2015-Aug-21 22:34N 38°14' E 001°06'1816.9
2015-Aug-21 21:29N 38°24' E 001°25'2 2.6
2015-Aug-21 20:33N 38°26' E 001°27'1716.9
2015-Aug-21 19:33N 38°16' E 001°09'5 4.7
2015-Aug-21 18:33N 38°13' E 001°05'1716.8
2015-Aug-21 17:33N 38°23' E 001°22'1716.6
2015-Aug-21 16:33N 38°33' E 001°38'1716.6
2015-Aug-21 15:33N 38°49' E 001°46'1616.5
2015-Aug-21 14:33N 39°05' E 001°52'1515.1
2015-Aug-21 13:33N 39°19' E 001°58'1 1.0
2015-Aug-21 12:33N 39°19' E 001°60'1 1.0
2015-Aug-21 11:33N 39°19' E 002°00'1 0.9
2015-Aug-21 10:33N 39°18' E 002°01'1 0.9
2015-Aug-21 09:33N 39°17' E 002°01'1 0.7
2015-Aug-21 08:33N 39°16' E 002°02'1 0.6
2015-Aug-21 07:33N 39°16' E 002°02'0 0.5
2015-Aug-21 06:33N 39°15' E 002°03'0 0.5
2015-Aug-21 05:33N 39°15' E 002°03'0 0.5
2015-Aug-21 04:33N 39°15' E 002°03'0 0.5
2015-Aug-21 03:33N 39°14' E 002°04'0 0.5
2015-Aug-21 02:33N 39°14' E 002°04'1 0.6
2015-Aug-21 01:33N 39°13' E 002°04'1 0.6
2015-Aug-21 00:33N 39°13' E 002°04'1 0.6
2015-Aug-20 23:33N 39°12' E 002°04'1 0.7
2015-Aug-20 22:33N 39°12' E 002°05'1 0.8
2015-Aug-20 21:33N 39°11' E 002°05'1 0.8
2015-Aug-20 20:33N 39°10' E 002°05'1 0.8
2015-Aug-20 19:33N 39°09' E 002°05'1 0.8
2015-Aug-20 18:33N 39°08' E 002°06'1 0.7
2015-Aug-20 17:33N 39°08' E 002°06'1 0.8
2015-Aug-20 16:33N 39°07' E 002°06'1 0.8
2015-Aug-20 15:33N 39°06' E 002°06'1 0.9
2015-Aug-20 14:33N 39°05' E 002°07'1 0.8
2015-Aug-20 13:07N 39°04' E 002°08'1 0.9
2015-Aug-20 12:33N 39°04' E 002°08'1 1.0
2015-Aug-20 11:33N 39°03' E 002°09'1 0.9
2015-Aug-20 10:33N 39°02' E 002°09'1 0.9
2015-Aug-20 09:33N 39°02' E 002°10'1 0.9
2015-Aug-20 08:32N 39°01' E 002°11'1 0.8
2015-Aug-20 07:33N 39°00' E 002°11'1 0.8
2015-Aug-20 06:33N 38°60' E 002°12'1 0.8
2015-Aug-20 05:33N 38°59' E 002°13'1 0.8
2015-Aug-20 04:33N 38°58' E 002°13'1 0.9
2015-Aug-20 03:33N 38°57' E 002°14'1 0.9
2015-Aug-20 02:29N 38°56' E 002°14'1 1.0
2015-Aug-20 01:33N 38°55' E 002°14'1 1.0
2015-Aug-20 00:33N 38°55' E 002°15'1 1.0
2015-Aug-19 23:29N 38°54' E 002°16'1 1.1
2015-Aug-19 22:32N 38°53' E 002°16'1 1.1
2015-Aug-19 21:31N 38°52' E 002°17'1 1.1
2015-Aug-19 20:33N 38°51' E 002°18'1 1.0
2015-Aug-19 19:33N 38°50' E 002°19'1 0.9
2015-Aug-19 18:27N 38°50' E 002°19'1 0.8
2015-Aug-19 17:33N 38°49' E 002°20'1 0.8
2015-Aug-19 16:32N 38°48' E 002°20'1 0.9
2015-Aug-19 15:31N 38°48' E 002°21'1 0.9
2015-Aug-19 14:32N 38°47' E 002°22'1 1.0
2015-Aug-19 13:31N 38°46' E 002°23'1 1.2
2015-Aug-19 12:30N 38°45' E 002°24'4 1.2
2015-Aug-19 09:30N 38°44' E 002°28'5 1.2
2015-Aug-19 05:33N 38°43' E 002°34'1 1.3
2015-Aug-19 04:32N 38°43' E 002°36'1 1.1
2015-Aug-19 03:33N 38°43' E 002°37'1 1.0
2015-Aug-19 02:33N 38°43' E 002°39'  

Dump ship's entire track history